Time;durP1;ratioP1;P1;durP2;ratioP2;P2;SDS_P1;SDS_P2;PMS_P1;PMS_P2;Temp;Humidity;BMP_temperature;BMP_pressure;BME280_temperature;BME280_humidity;BME280_pressure;Samples;Min_cycle;Max_cycle;Signal;HPM_P1;HPM_P2
2022/09/12 00:01:50;;;;;;;8.40;6.28;;;16.90;99.90;;;;;;5077676;28;20037;-68
2022/09/12 00:04:16;;;;;;;7.82;6.40;;;16.90;99.90;;;;;;5077411;28;20024;-68
2022/09/12 00:06:42;;;;;;;7.20;6.50;;;16.90;99.90;;;;;;5077310;28;20032;-68
2022/09/12 00:09:10;;;;;;;8.77;6.10;;;16.90;99.90;;;;;;5077112;28;20031;-68
2022/09/12 00:11:38;;;;;;;6.93;6.10;;;16.90;99.90;;;;;;5076978;28;20024;-67
2022/09/12 00:14:04;;;;;;;6.30;5.72;;;16.90;99.90;;;;;;5076855;28;20031;-67
2022/09/12 00:16:32;;;;;;;7.70;6.75;;;17.00;99.90;;;;;;5076942;28;20024;-67
2022/09/12 00:18:58;;;;;;;7.20;6.50;;;16.90;99.90;;;;;;5058761;28;20476;-67
2022/09/12 00:21:24;;;;;;;;;;;16.90;99.90;;;;;;5077391;28;20469;-67
2022/09/12 00:23:50;;;;;;;12.15;6.75;;;16.80;99.90;;;;;;5076812;28;20050;-67
2022/09/12 00:26:16;;;;;;;;;;;16.80;99.90;;;;;;5059219;28;20119;-68
2022/09/12 00:28:45;;;;;;;7.15;6.45;;;16.70;99.90;;;;;;5076661;28;19951;-67
2022/09/12 00:31:13;;;;;;;7.20;6.47;;;16.60;99.90;;;;;;5076778;28;20024;-64
2022/09/12 00:33:39;;;;;;;9.77;6.32;;;16.60;99.90;;;;;;5076470;28;20021;-65
2022/09/12 00:36:08;;;;;;;11.68;6.55;;;16.50;99.90;;;;;;5076973;28;20021;-65
2022/09/12 00:38:37;;;;;;;8.90;6.57;;;16.40;99.90;;;;;;5076490;28;20048;-65
2022/09/12 00:41:03;;;;;;;8.25;6.43;;;16.40;99.90;;;;;;5076781;28;20048;-65
2022/09/12 00:43:29;;;;;;;8.98;6.85;;;16.30;99.90;;;;;;5077025;28;20493;-65
2022/09/12 00:45:56;;;;;;;7.60;6.77;;;16.30;99.90;;;;;;5058585;28;20036;-65
2022/09/12 00:48:33;;;;;;;9.43;6.38;;;16.30;99.90;;;;;;5076518;28;20020;-63
2022/09/12 00:50:59;;;;;;;10.68;7.15;;;16.20;99.90;;;;;;5058302;28;20024;-65
2022/09/12 00:53:25;;;;;;;7.55;6.57;;;16.20;99.90;;;;;;5076237;28;20078;-65
2022/09/12 00:55:52;;;;;;;7.50;6.50;;;16.10;99.90;;;;;;5076361;28;20032;-65
2022/09/12 00:58:42;;;;;;;6.95;6.25;;;16.20;99.90;;;;;;5076036;28;20059;-65
2022/09/12 01:01:07;;;;;;;7.18;6.45;;;16.20;99.90;;;;;;5061886;28;20123;-64
2022/09/12 01:03:33;;;;;;;9.93;6.47;;;16.20;99.90;;;;;;5076183;28;20095;-65
2022/09/12 01:06:07;;;;;;;8.27;6.47;;;16.30;99.90;;;;;;5075003;28;20032;-65
2022/09/12 01:08:36;;;;;;;8.73;6.35;;;16.30;99.90;;;;;;5076175;28;20427;-65
2022/09/12 01:11:03;;;;;;;7.43;6.55;;;16.30;99.90;;;;;;5057870;28;20029;-65
2022/09/12 01:13:29;;;;;;;8.93;6.88;;;16.30;99.90;;;;;;5075922;28;20025;-63
2022/09/12 01:15:55;;;;;;;8.27;6.53;;;16.30;99.90;;;;;;5058070;28;20017;-65
2022/09/12 01:18:21;;;;;;;7.65;6.53;;;16.30;99.90;;;;;;5076151;28;20036;-65
2022/09/12 01:21:11;;;;;;;7.87;6.60;;;16.30;99.90;;;;;;5075898;28;20400;-65
2022/09/12 01:24:08;;;;;;;7.35;6.47;;;16.30;99.90;;;;;;5077848;28;20027;-64
2022/09/12 01:27:11;;;;;;;8.23;6.90;;;16.30;99.90;;;;;;5079016;28;20073;-64
2022/09/12 01:30:10;;;;;;;7.40;6.68;;;16.30;99.90;;;;;;5061459;28;20422;-64
2022/09/12 01:33:10;;;;;;;7.88;6.60;;;16.30;99.90;;;;;;5060618;28;20024;-64
2022/09/12 01:36:00;;;;;;;10.10;6.93;;;16.30;99.90;;;;;;5060163;28;20388;-64
2022/09/12 01:38:31;;;;;;;7.47;5.88;;;16.30;99.90;;;;;;5077745;28;20052;-64
2022/09/12 01:41:22;;;;;;;7.75;6.75;;;16.30;99.90;;;;;;5076971;28;20025;-64
2022/09/12 01:44:03;;;;;;;6.82;6.07;;;16.30;99.90;;;;;;5058906;28;20028;-64
2022/09/12 01:46:41;;;;;;;7.55;6.25;;;16.30;99.90;;;;;;5058497;28;20469;-64
2022/09/12 01:49:24;;;;;;;6.95;6.05;;;16.20;99.90;;;;;;5075871;28;20028;-64
2022/09/12 01:51:56;;;;;;;7.05;5.75;;;16.30;99.90;;;;;;5075868;28;20347;-64
2022/09/12 01:54:34;;;;;;;8.88;6.35;;;16.20;99.90;;;;;;5075118;28;20110;-64
2022/09/12 01:57:07;;;;;;;8.68;6.15;;;16.10;99.90;;;;;;5075392;28;20103;-64
2022/09/12 01:59:39;;;;;;;7.40;6.05;;;16.10;99.90;;;;;;5057356;28;20097;-64
2022/09/12 02:02:11;;;;;;;8.20;6.50;;;16.00;99.90;;;;;;5075813;28;20016;-65
2022/09/12 02:04:47;;;;;;;7.93;6.60;;;16.10;99.90;;;;;;5075165;28;20023;-64
2022/09/12 02:07:21;;;;;;;10.17;7.07;;;16.00;99.90;;;;;;5074794;28;20035;-64
2022/09/12 02:10:02;;;;;;;8.02;6.55;;;15.90;99.90;;;;;;5074693;28;20381;-64
2022/09/12 02:12:35;;;;;;;8.32;6.47;;;15.90;99.90;;;;;;5074772;28;20021;-64
2022/09/12 02:15:06;;;;;;;9.13;6.80;;;15.90;99.90;;;;;;5077664;28;20023;-64
2022/09/12 02:17:37;;;;;;;10.05;6.53;;;15.80;99.90;;;;;;5059996;28;20016;-64
2022/09/12 02:20:19;;;;;;;7.90;6.93;;;15.80;99.90;;;;;;5076103;28;20021;-64
2022/09/12 02:22:46;;;;;;;8.68;6.88;;;15.80;99.90;;;;;;5075106;28;20070;-64
2022/09/12 02:25:16;;;;;;;7.20;6.43;;;15.70;99.90;;;;;;5076097;28;20021;-66
2022/09/12 02:27:49;;;;;;;12.55;7.80;;;15.70;99.90;;;;;;5076758;28;20461;-64
2022/09/12 02:30:16;;;;;;;9.65;6.80;;;15.50;99.90;;;;;;5076491;28;20031;-66
2022/09/12 02:33:03;;;;;;;8.45;6.78;;;15.50;99.90;;;;;;5074987;28;20500;-66
2022/09/12 02:35:47;;;;;;;8.68;6.95;;;15.50;99.90;;;;;;5057992;28;20024;-65
2022/09/12 02:38:49;;;;;;;7.70;6.47;;;15.50;99.90;;;;;;5058680;28;20024;-64
2022/09/12 02:41:19;;;;;;;9.52;6.57;;;15.50;99.90;;;;;;5070372;28;20547;-64
2022/09/12 02:43:45;;;;;;;7.35;6.60;;;15.40;99.90;;;;;;5081181;28;20031;-64
2022/09/12 02:46:20;;;;;;;;;;;15.40;99.90;;;;;;5074838;28;20086;-65
2022/09/12 02:48:45;;;;;;;9.55;7.22;;;15.30;99.90;;;;;;5074715;28;19915;-64
2022/09/12 02:51:11;;;;;;;7.90;7.10;;;15.30;99.90;;;;;;5073894;28;20388;-64
2022/09/12 02:53:37;;;;;;;9.73;6.65;;;15.20;99.90;;;;;;5073897;28;20025;-66
2022/09/12 02:56:07;;;;;;;7.85;6.90;;;15.20;99.90;;;;;;5073866;28;20036;-65
2022/09/12 02:58:33;;;;;;;8.88;6.72;;;15.30;99.90;;;;;;5073818;28;20036;-64
2022/09/12 03:01:08;;;;;;;7.93;7.13;;;15.30;99.90;;;;;;5073628;28;20044;-65
2022/09/12 03:03:55;;;;;;;9.60;7.05;;;15.30;99.90;;;;;;5055829;28;20033;-65
2022/09/12 03:06:40;;;;;;;10.93;7.00;;;15.20;99.90;;;;;;5073814;28;20025;-65
2022/09/12 03:09:31;;;;;;;8.63;7.72;;;15.10;99.90;;;;;;5073404;28;20279;-65
2022/09/12 03:12:24;;;;;;;10.13;7.35;;;15.10;99.90;;;;;;5055464;28;20036;-65
2022/09/12 03:15:00;;;;;;;8.35;6.40;;;15.10;99.90;;;;;;5073417;28;20033;-65
2022/09/12 03:17:44;;;;;;;8.82;7.05;;;15.10;99.90;;;;;;5073781;28;20027;-65
2022/09/12 03:20:15;;;;;;;9.63;7.43;;;15.10;99.90;;;;;;5073372;28;20023;-64
2022/09/12 03:22:50;;;;;;;9.85;7.72;;;15.00;99.90;;;;;;5073969;28;20099;-65
2022/09/12 03:25:20;;;;;;;9.50;6.85;;;15.00;99.90;;;;;;5073627;28;20033;-65
2022/09/12 03:28:06;;;;;;;11.10;8.20;;;14.90;99.90;;;;;;5072941;28;20468;-65
2022/09/12 03:30:38;;;;;;;8.38;7.28;;;14.90;99.90;;;;;;5073622;28;20028;-65
2022/09/12 03:33:03;;;;;;;9.70;7.03;;;14.90;99.90;;;;;;5073793;28;20470;-65
2022/09/12 03:35:29;;;;;;;8.07;6.80;;;14.90;99.90;;;;;;5073293;28;20020;-65
2022/09/12 03:37:54;;;;;;;8.33;7.10;;;14.90;99.90;;;;;;5055257;28;20032;-65
2022/09/12 03:40:20;;;;;;;8.10;7.13;;;15.00;99.90;;;;;;5073908;28;20271;-64
2022/09/12 03:42:46;;;;;;;9.50;6.95;;;15.00;99.90;;;;;;5076450;28;20132;-64
2022/09/12 03:45:12;;;;;;;9.00;6.97;;;15.10;99.90;;;;;;5075238;28;20025;-65
2022/09/12 03:47:38;;;;;;;7.95;6.90;;;15.00;99.90;;;;;;5073617;28;20029;-64
2022/09/12 03:50:05;;;;;;;;;;;15.10;99.90;;;;;;5074210;28;20485;-65
2022/09/12 03:52:31;;;;;;;7.97;6.90;;;15.10;99.90;;;;;;5055519;28;20281;-65
2022/09/12 03:54:56;;;;;;;9.00;6.82;;;15.20;99.90;;;;;;5073060;28;20017;-65
2022/09/12 03:57:22;;;;;;;9.97;7.77;;;15.20;99.90;;;;;;5055028;28;20082;-65
2022/09/12 03:59:49;;;;;;;9.10;7.80;;;15.20;99.90;;;;;;5073132;28;20045;-64
2022/09/12 04:02:15;;;;;;;9.13;6.82;;;15.20;99.90;;;;;;5072934;28;20043;-64
2022/09/12 04:04:42;;;;;;;8.30;6.88;;;15.10;99.90;;;;;;5073038;28;20029;-64
2022/09/12 04:07:08;;;;;;;8.80;7.05;;;15.00;99.90;;;;;;5073219;28;20408;-65
2022/09/12 04:09:33;;;;;;;8.18;7.18;;;15.00;99.90;;;;;;5072774;28;20032;-64
2022/09/12 04:11:59;;;;;;;8.37;7.40;;;15.00;99.90;;;;;;5073543;28;20035;-65
2022/09/12 04:14:24;;;;;;;12.60;7.37;;;15.00;99.90;;;;;;5054942;28;20020;-64
2022/09/12 04:16:50;;;;;;;8.30;6.97;;;15.00;99.90;;;;;;5073329;28;20035;-65
2022/09/12 04:19:15;;;;;;;11.80;7.60;;;14.90;99.90;;;;;;5072997;28;20377;-65
2022/09/12 04:21:41;;;;;;;9.20;7.37;;;14.80;99.90;;;;;;5073245;28;20035;-65
2022/09/12 04:24:06;;;;;;;10.37;7.70;;;14.70;99.90;;;;;;5073164;28;20271;-65
2022/09/12 04:26:32;;;;;;;11.20;7.50;;;14.70;99.90;;;;;;5055032;28;20040;-65
2022/09/12 04:28:58;;;;;;;8.82;7.78;;;14.70;99.90;;;;;;5073018;28;20028;-65
2022/09/12 04:31:24;;;;;;;10.57;7.73;;;14.70;99.90;;;;;;5055355;28;20082;-65
2022/09/12 04:33:55;;;;;;;10.20;7.32;;;14.90;99.90;;;;;;5054788;28;20473;-65
2022/09/12 04:36:21;;;;;;;9.07;7.85;;;14.90;99.90;;;;;;5054735;28;20021;-65
2022/09/12 04:38:48;;;;;;;10.63;7.65;;;14.80;99.90;;;;;;5073017;28;20586;-65
2022/09/12 04:41:27;;;;;;;11.10;8.13;;;14.70;99.90;;;;;;5058594;28;20473;-66
2022/09/12 04:43:57;;;;;;;10.60;7.45;;;14.70;99.90;;;;;;5058619;28;20086;-66
2022/09/12 04:46:22;;;;;;;9.48;7.45;;;14.60;99.90;;;;;;5076531;28;20035;-64
2022/09/12 04:48:48;;;;;;;11.63;8.13;;;14.60;99.90;;;;;;5076714;28;20111;-66
2022/09/12 04:51:19;;;;;;;11.18;8.15;;;14.60;99.90;;;;;;5059177;28;20025;-65
2022/09/12 04:53:49;;;;;;;14.93;7.57;;;14.60;99.90;;;;;;5076985;28;20420;-65
2022/09/12 04:56:15;;;;;;;15.43;7.75;;;14.60;99.90;;;;;;5078636;28;20394;-66
2022/09/12 04:58:40;;;;;;;22.85;8.50;;;14.60;99.90;;;;;;5078287;28;20056;-63
2022/09/12 05:01:11;;;;;;;10.43;7.30;;;14.60;99.90;;;;;;5079449;28;20021;-63
2022/09/12 05:03:38;;;;;;;11.00;7.78;;;14.60;99.90;;;;;;5061531;28;20270;-65
2022/09/12 05:06:06;;;;;;;9.02;7.15;;;14.60;99.90;;;;;;5078189;28;20051;-66
2022/09/12 05:08:33;;;;;;;10.52;7.47;;;14.60;99.90;;;;;;5059169;28;20119;-66
2022/09/12 05:11:11;;;;;;;11.48;7.57;;;14.60;99.90;;;;;;5078889;22;21051;-64
2022/09/12 05:13:37;;;;;;;12.27;7.75;;;14.60;99.90;;;;;;5055288;28;20041;-64
2022/09/12 05:16:04;;;;;;;8.60;7.57;;;14.60;99.90;;;;;;5037370;28;20048;-64
2022/09/12 05:18:32;;;;;;;8.95;7.55;;;14.50;99.90;;;;;;5055246;28;20051;-63
2022/09/12 05:21:01;;;;;;;11.95;7.10;;;14.50;99.90;;;;;;5058206;28;20431;-63
2022/09/12 05:23:28;;;;;;;9.45;7.32;;;14.40;99.90;;;;;;5057233;28;20029;-63
2022/09/12 05:25:56;;;;;;;9.48;7.30;;;14.40;99.90;;;;;;5075348;28;20031;-64
2022/09/12 05:28:23;;;;;;;10.10;7.80;;;14.50;99.90;;;;;;5075179;28;20029;-64
2022/09/12 05:30:58;;;;;;;;;;;14.60;99.90;;;;;;5075266;28;20488;-64
2022/09/12 05:33:23;;;;;;;11.23;7.60;;;14.60;99.90;;;;;;5075541;28;19904;-64
2022/09/12 05:35:52;;;;;;;12.70;8.70;;;14.70;99.90;;;;;;5075252;28;20024;-65
2022/09/12 05:38:17;;;;;;;9.63;8.43;;;14.70;99.90;;;;;;5075435;28;20084;-64
2022/09/12 05:40:43;;;;;;;13.70;9.13;;;14.70;99.90;;;;;;5075106;28;20099;-65
2022/09/12 05:43:11;;;;;;;13.10;9.37;;;14.60;99.90;;;;;;5075263;28;20035;-65
2022/09/12 05:45:37;;;;;;;13.10;9.05;;;14.50;99.90;;;;;;5075301;28;20057;-64
2022/09/12 05:48:03;;;;;;;14.30;9.80;;;14.50;99.90;;;;;;5075340;28;20024;-65
2022/09/12 05:50:28;;;;;;;14.77;10.13;;;14.60;99.90;;;;;;5074008;28;20532;-65
2022/09/12 05:52:55;;;;;;;12.10;9.87;;;14.50;99.90;;;;;;5074518;28;20041;-64
2022/09/12 05:55:21;;;;;;;11.45;9.45;;;14.40;99.90;;;;;;5074617;28;20031;-64
2022/09/12 05:57:47;;;;;;;11.80;9.18;;;14.40;99.90;;;;;;5074703;28;20043;-66
2022/09/12 06:00:13;;;;;;;16.80;9.38;;;14.30;99.90;;;;;;5074772;28;20481;-64
2022/09/12 06:02:39;;;;;;;12.75;9.77;;;14.40;99.90;;;;;;5074353;28;20044;-64
2022/09/12 06:05:05;;;;;;;14.32;9.38;;;14.40;99.90;;;;;;5074555;28;20117;-64
2022/09/12 06:07:31;;;;;;;14.95;9.43;;;14.40;99.90;;;;;;5074762;28;20039;-63
2022/09/12 06:09:58;;;;;;;11.32;9.30;;;14.40;99.90;;;;;;5074177;28;20022;-64
2022/09/12 06:12:25;;;;;;;10.93;8.60;;;14.60;99.90;;;;;;5073935;28;20127;-64
2022/09/12 06:14:51;;;;;;;14.13;10.35;;;14.60;99.90;;;;;;5074060;28;20052;-64
2022/09/12 06:17:17;;;;;;;11.80;8.95;;;14.80;99.90;;;;;;5074650;28;20048;-65
2022/09/12 06:19:44;;;;;;;11.95;9.45;;;14.80;99.90;;;;;;5074165;28;20032;-65
2022/09/12 06:22:10;;;;;;;10.93;9.40;;;14.90;99.90;;;;;;5074202;28;20427;-65
2022/09/12 06:24:35;;;;;;;12.83;8.67;;;14.80;99.90;;;;;;5074055;28;20481;-64
2022/09/12 06:27:01;;;;;;;13.80;8.70;;;14.90;99.90;;;;;;5073915;28;20370;-64
2022/09/12 06:29:27;;;;;;;11.32;8.50;;;15.00;99.90;;;;;;5073847;28;20085;-64
2022/09/12 06:31:52;;;;;;;12.98;8.10;;;14.90;99.90;;;;;;5073658;28;20024;-64
2022/09/12 06:34:18;;;;;;;10.60;7.97;;;15.00;99.90;;;;;;5073742;28;20173;-64
2022/09/12 06:36:46;;;;;;;13.45;8.95;;;15.10;99.90;;;;;;5073811;28;20020;-64
2022/09/12 06:39:17;;;;;;;13.55;7.75;;;15.10;99.90;;;;;;5074546;28;20070;-64
2022/09/12 06:41:43;;;;;;;15.90;9.48;;;15.20;99.90;;;;;;5073686;28;20020;-64
2022/09/12 06:44:12;;;;;;;10.75;7.63;;;15.30;99.90;;;;;;5055684;28;20062;-63
2022/09/12 06:46:38;;;;;;;8.82;7.93;;;15.30;99.90;;;;;;5073806;28;20481;-64
2022/09/12 06:49:04;;;;;;;13.20;7.50;;;15.40;99.90;;;;;;5073837;28;20101;-65
2022/09/12 06:51:29;;;;;;;11.10;7.72;;;15.40;99.90;;;;;;5073373;28;20029;-64
2022/09/12 06:53:56;;;;;;;11.27;7.70;;;15.60;99.90;;;;;;5073737;28;20028;-64
2022/09/12 06:56:24;;;;;;;12.20;7.85;;;15.70;99.90;;;;;;5073293;28;20095;-63
2022/09/12 06:58:51;;;;;;;8.38;7.00;;;15.80;99.90;;;;;;5055125;28;20027;-63
2022/09/12 07:01:22;;;;;;;11.68;7.32;;;15.90;99.90;;;;;;5073396;28;20104;-65
2022/09/12 07:03:50;;;;;;;9.02;6.95;;;15.90;99.90;;;;;;5073625;28;20021;-64
2022/09/12 07:06:18;;;;;;;8.75;5.78;;;16.00;99.90;;;;;;5073662;28;20032;-64
2022/09/12 07:08:44;;;;;;;11.43;7.68;;;16.00;99.90;;;;;;5073343;28;20452;-65
2022/09/12 07:11:14;;;;;;;;;;;16.10;99.90;;;;;;5074769;28;20026;-64
2022/09/12 07:13:41;;;;;;;15.52;10.48;;;16.30;99.90;;;;;;5073945;28;19908;-65
2022/09/12 07:16:07;;;;;;;10.50;7.43;;;16.40;99.90;;;;;;5073563;28;20091;-64
2022/09/12 07:18:34;;;;;;;12.65;7.63;;;16.50;99.90;;;;;;5073236;28;20021;-64
2022/09/12 07:21:01;;;;;;;10.07;7.47;;;16.70;99.90;;;;;;5073046;28;20119;-65
2022/09/12 07:23:27;;;;;;;10.10;7.43;;;16.80;99.90;;;;;;5072894;28;20028;-64
2022/09/12 07:25:53;;;;;;;;;;;16.80;99.90;;;;;;5073881;28;20115;-64
2022/09/12 07:28:19;;;;;;;11.40;7.32;;;16.90;99.90;;;;;;5072860;28;19908;-65
2022/09/12 07:30:44;;;;;;;11.77;8.02;;;16.90;99.90;;;;;;5072687;28;20033;-64
2022/09/12 07:33:10;;;;;;;9.53;7.37;;;17.00;99.90;;;;;;5072595;28;20044;-65
2022/09/12 07:35:36;;;;;;;9.38;7.32;;;17.00;99.90;;;;;;5054537;28;20024;-64
2022/09/12 07:38:01;;;;;;;15.90;11.47;;;17.00;99.90;;;;;;5073248;28;20108;-64
2022/09/12 07:40:27;;;;;;;11.95;7.43;;;17.10;99.90;;;;;;5072966;28;20025;-64
2022/09/12 07:42:52;;;;;;;9.23;6.73;;;17.20;99.90;;;;;;5072851;28;20086;-64
2022/09/12 07:45:18;;;;;;;9.17;7.43;;;17.20;99.90;;;;;;5073399;28;20259;-64
2022/09/12 07:47:43;;;;;;;10.57;6.60;;;17.30;99.90;;;;;;5073409;28;20093;-64
2022/09/12 07:50:09;;;;;;;8.10;6.43;;;17.30;99.90;;;;;;5073104;28;20320;-64
2022/09/12 07:52:35;;;;;;;10.48;6.05;;;17.20;99.90;;;;;;5072760;28;20258;-64
2022/09/12 07:55:01;;;;;;;9.98;5.95;;;17.30;99.90;;;;;;5054504;28;20422;-64
2022/09/12 07:57:26;;;;;;;8.23;6.30;;;17.50;99.90;;;;;;5072861;28;20453;-64
2022/09/12 07:59:52;;;;;;;9.05;5.85;;;17.60;99.90;;;;;;5054544;28;20037;-63
2022/09/12 08:02:18;;;;;;;8.80;6.25;;;17.80;99.90;;;;;;5072502;28;20174;-65
2022/09/12 08:04:43;;;;;;;7.30;6.60;;;17.70;99.90;;;;;;5072606;28;20025;-65
2022/09/12 08:07:09;;;;;;;8.48;6.10;;;17.70;99.90;;;;;;5072720;28;20167;-65
2022/09/12 08:09:35;;;;;;;6.97;6.27;;;17.90;99.90;;;;;;5072410;28;20086;-65
2022/09/12 08:12:01;;;;;;;8.27;6.32;;;17.90;99.90;;;;;;5072269;28;20433;-65
2022/09/12 08:14:26;;;;;;;7.78;6.28;;;18.10;99.90;;;;;;5073909;28;20505;-65
2022/09/12 08:16:52;;;;;;;7.82;6.35;;;18.20;99.90;;;;;;5058453;28;20024;-65
2022/09/12 08:19:18;;;;;;;8.07;6.88;;;18.20;99.90;;;;;;5076581;28;20358;-63
2022/09/12 08:21:44;;;;;;;7.95;6.35;;;18.10;99.90;;;;;;5076667;28;20012;-65
2022/09/12 08:24:11;;;;;;;7.13;5.95;;;18.20;99.90;;;;;;5076428;28;20029;-65
2022/09/12 08:26:36;;;;;;;8.75;5.78;;;18.20;99.90;;;;;;5058450;28;20025;-64
2022/09/12 08:29:03;;;;;;;8.85;5.32;;;18.30;99.90;;;;;;5076352;28;20529;-65
2022/09/12 08:31:35;;;;;;;8.45;5.72;;;18.60;99.90;;;;;;5076393;28;20472;-65
2022/09/12 08:34:01;;;;;;;5.85;5.25;;;18.50;99.90;;;;;;5076289;28;20028;-64
2022/09/12 08:36:28;;;;;;;8.15;6.03;;;18.70;99.90;;;;;;5076035;28;20074;-64
2022/09/12 08:38:56;;;;;;;6.55;5.03;;;19.00;99.90;;;;;;5075901;28;20021;-66
2022/09/12 08:41:39;;;;;;;9.38;6.05;;;19.30;99.90;;;;;;5075900;28;20488;-64
2022/09/12 08:44:37;;;;;;;9.93;4.93;;;19.60;99.90;;;;;;5076139;28;20032;-64
2022/09/12 08:47:15;;;;;;;;;;;21.20;99.90;;;;;;5020590;28;20033;-64
2022/09/12 08:50:16;;;;;;;6.53;4.70;;;24.90;99.90;;;;;;5075815;28;19911;-65
2022/09/12 08:52:44;;;;;;;5.25;4.10;;;27.70;97.60;;;;;;4974744;28;20031;-64
2022/09/12 08:55:25;;;;;;;4.40;4.00;;;30.30;92.80;;;;;;4958522;28;20023;-65
2022/09/12 08:57:51;;;;;;;5.30;3.80;;;30.70;89.20;;;;;;4974950;28;20030;-65
2022/09/12 09:00:18;;;;;;;4.60;3.50;;;30.00;90.10;;;;;;4974809;28;20038;-65
2022/09/12 09:03:17;;;;;;;7.03;3.15;;;31.00;87.40;;;;;;4974537;28;20090;-65
2022/09/12 09:05:54;;;;;;;4.13;3.72;;;33.30;83.00;;;;;;4967153;28;20535;-65
2022/09/12 09:08:43;;;;;;;5.20;3.25;;;31.10;81.40;;;;;;4974823;28;20586;-65
2022/09/12 09:11:41;;;;;;;4.70;3.38;;;32.50;81.70;;;;;;4974649;28;20033;-65
2022/09/12 09:14:46;;;;;;;4.60;3.10;;;33.60;77.40;;;;;;4975127;28;20096;-65
2022/09/12 09:17:19;;;;;;;4.28;3.40;;;35.30;74.90;;;;;;4958876;28;20045;-65
2022/09/12 09:20:09;;;;;;;4.68;3.40;;;35.80;71.50;;;;;;4975491;28;20018;-65
2022/09/12 09:22:43;;;;;;;4.72;3.20;;;33.50;73.40;;;;;;4974733;28;20035;-65
2022/09/12 09:25:16;;;;;;;3.92;3.53;;;34.30;73.20;;;;;;4974188;28;20057;-65
2022/09/12 09:27:58;;;;;;;5.55;3.28;;;35.50;70.20;;;;;;4974304;28;20071;-65
2022/09/12 09:30:24;;;;;;;4.05;2.80;;;34.40;70.90;;;;;;5075496;28;20032;-65
2022/09/12 09:32:59;;;;;;;6.25;3.35;;;35.00;70.50;;;;;;5074938;28;20025;-65
2022/09/12 09:35:44;;;;;;;4.80;2.90;;;34.20;69.30;;;;;;5075048;28;20028;-65
2022/09/12 09:38:34;;;;;;;4.38;2.97;;;34.50;70.00;;;;;;5075014;28;20051;-64
2022/09/12 09:41:28;;;;;;;5.53;3.05;;;35.80;68.70;;;;;;5074717;28;20127;-64
2022/09/12 09:43:56;;;;;;;5.45;3.10;;;35.30;69.10;;;;;;5075158;28;20039;-65
2022/09/12 09:46:21;;;;;;;4.70;3.15;;;35.30;68.30;;;;;;5075510;28;20473;-65
2022/09/12 09:48:48;;;;;;;3.60;2.85;;;35.70;67.20;;;;;;5075728;28;20042;-65
2022/09/12 09:51:24;;;;;;;3.40;3.10;;;35.20;67.70;;;;;;5074887;28;20503;-64
2022/09/12 09:54:02;;;;;;;3.88;3.03;;;35.80;66.40;;;;;;5056475;28;20063;-65
2022/09/12 09:56:39;;;;;;;3.55;3.00;;;35.20;67.50;;;;;;5074349;28;20039;-64
2022/09/12 09:59:15;;;;;;;3.75;3.10;;;36.40;65.90;;;;;;5073968;28;20162;-64
2022/09/12 10:02:02;;;;;;;3.88;2.95;;;35.80;66.40;;;;;;5073804;28;20021;-65
2022/09/12 10:04:34;;;;;;;4.43;2.90;;;36.90;66.30;;;;;;5073742;28;20020;-65
2022/09/12 10:07:02;;;;;;;5.65;3.50;;;37.90;63.90;;;;;;5074072;28;20334;-64
2022/09/12 10:09:36;;;;;;;3.15;2.85;;;38.80;63.20;;;;;;5074067;28;20421;-65
2022/09/12 10:12:27;;;;;;;4.93;3.40;;;38.50;62.00;;;;;;5073880;28;20139;-65
2022/09/12 10:14:59;;;;;;;5.20;3.28;;;37.90;62.40;;;;;;5060062;28;20067;-65
2022/09/12 10:17:41;;;;;;;6.30;3.35;;;36.00;64.60;;;;;;5074059;28;20101;-65
2022/09/12 10:20:44;;;;;;;3.40;3.10;;;36.40;64.80;;;;;;5074089;28;20056;-64
2022/09/12 10:23:32;;;;;;;4.93;4.05;;;37.60;63.70;;;;;;5074209;28;20461;-65
2022/09/12 10:26:00;;;;;;;5.80;3.15;;;39.20;61.60;;;;;;5056108;28;20104;-64
2022/09/12 10:28:45;;;;;;;4.95;4.10;;;39.80;60.40;;;;;;5074061;28;20150;-65
2022/09/12 10:31:28;;;;;;;6.00;3.53;;;40.00;59.80;;;;;;5073552;28;20017;-65
2022/09/12 10:33:57;;;;;;;4.45;3.60;;;39.20;60.10;;;;;;5074043;28;20274;-64
2022/09/12 10:36:24;;;;;;;3.10;2.80;;;38.70;60.20;;;;;;5055219;28;20370;-65
2022/09/12 10:38:54;;;;;;;4.32;3.00;;;37.90;60.70;;;;;;5073107;28;20490;-65
2022/09/12 10:41:20;;;;;;;3.97;2.97;;;35.80;63.00;;;;;;5073624;28;20107;-64
2022/09/12 10:43:46;;;;;;;3.30;3.00;;;36.40;63.40;;;;;;5073801;28;20098;-66
2022/09/12 10:46:15;;;;;;;4.20;2.90;;;36.90;62.30;;;;;;5073360;28;20091;-65
2022/09/12 10:48:44;;;;;;;3.30;2.97;;;36.80;61.70;;;;;;5073727;28;20543;-65
2022/09/12 10:51:27;;;;;;;3.53;2.67;;;37.40;61.60;;;;;;5073124;28;20107;-65
2022/09/12 10:53:58;;;;;;;3.35;3.00;;;37.90;60.50;;;;;;5055255;28;20056;-65
2022/09/12 10:56:34;;;;;;;2.60;2.40;;;37.60;60.70;;;;;;5073238;28;20013;-65
2022/09/12 10:59:27;;;;;;;3.10;2.60;;;38.00;60.80;;;;;;5073108;28;20170;-63
2022/09/12 11:01:59;;;;;;;4.75;2.70;;;37.70;60.90;;;;;;5073359;28;20017;-64
2022/09/12 11:04:52;;;;;;;3.05;2.72;;;37.70;60.60;;;;;;5055027;28;20059;-64
2022/09/12 11:07:41;;;;;;;3.28;2.92;;;35.80;62.20;;;;;;5073168;28;20031;-64
2022/09/12 11:10:20;;;;;;;4.13;3.20;;;32.80;64.80;;;;;;5073176;28;20023;-66
2022/09/12 11:12:54;;;;;;;5.38;3.15;;;30.70;69.20;;;;;;5073747;28;20461;-66
2022/09/12 11:15:47;;;;;;;5.32;3.03;;;29.60;72.00;;;;;;5073339;28;20033;-67
2022/09/12 11:18:35;;;;;;;4.10;2.95;;;28.70;72.80;;;;;;5073308;28;20013;-65
2022/09/12 11:21:15;;;;;;;4.55;3.17;;;27.90;75.30;;;;;;5072623;28;20017;-66
2022/09/12 11:24:15;;;;;;;3.38;3.08;;;27.00;77.00;;;;;;5072727;28;20028;-66
2022/09/12 11:27:09;;;;;;;3.72;3.05;;;26.80;78.50;;;;;;5072217;28;20032;-66
2022/09/12 11:30:03;;;;;;;3.35;2.85;;;26.50;79.30;;;;;;5055699;28;20025;-66
2022/09/12 11:32:31;;;;;;;5.15;2.97;;;26.20;80.50;;;;;;5073477;28;20024;-66
2022/09/12 11:35:26;;;;;;;3.72;3.28;;;26.20;81.10;;;;;;5054143;28;20024;-66
2022/09/12 11:38:15;;;;;;;6.20;3.10;;;25.90;80.90;;;;;;5072568;28;20024;-67
2022/09/12 11:40:55;;;;;;;4.55;3.17;;;25.90;81.90;;;;;;5072570;28;20032;-65
2022/09/12 11:43:39;;;;;;;3.38;3.05;;;25.80;81.20;;;;;;5072717;28;20389;-65
2022/09/12 11:46:15;;;;;;;4.22;2.80;;;25.70;81.90;;;;;;5072440;28;20377;-65
2022/09/12 11:49:00;;;;;;;6.20;2.77;;;25.60;82.40;;;;;;5071588;28;20021;-65
2022/09/12 11:51:32;;;;;;;3.67;3.20;;;25.50;82.90;;;;;;5072676;28;20607;-64
2022/09/12 11:54:27;;;;;;;4.38;2.92;;;25.40;83.10;;;;;;5072501;28;20020;-64
2022/09/12 11:57:03;;;;;;;3.13;2.92;;;25.20;83.20;;;;;;5072896;28;20157;-65
2022/09/12 11:59:28;;;;;;;4.20;3.30;;;24.70;84.80;;;;;;5072461;28;20517;-65
2022/09/12 12:01:58;;;;;;;10.73;3.72;;;24.50;86.10;;;;;;5054441;28;20104;-65
2022/09/12 12:04:35;;;;;;;4.60;3.10;;;24.60;87.10;;;;;;5072321;28;20052;-65
2022/09/12 12:07:05;;;;;;;3.05;2.75;;;24.90;85.00;;;;;;5072291;28;20033;-65
2022/09/12 12:09:31;;;;;;;4.25;2.65;;;25.10;83.40;;;;;;5072498;28;20481;-65
2022/09/12 12:12:03;;;;;;;4.43;2.90;;;25.00;83.70;;;;;;5072137;28;20040;-66
2022/09/12 12:14:43;;;;;;;3.70;3.08;;;25.00;84.50;;;;;;5072481;28;20024;-66
2022/09/12 12:17:14;;;;;;;3.20;2.58;;;25.20;83.80;;;;;;5054383;28;20095;-67
2022/09/12 12:19:40;;;;;;;3.97;2.83;;;25.30;83.70;;;;;;5072351;28;20023;-66
2022/09/12 12:22:20;;;;;;;;;;;25.20;82.20;;;;;;5072594;28;20385;-65
2022/09/12 12:25:05;;;;;;;2.80;2.40;;;25.10;79.30;;;;;;5072551;28;19911;-66
2022/09/12 12:27:43;;;;;;;2.88;2.20;;;25.20;80.20;;;;;;5072197;28;20154;-66
2022/09/12 12:30:30;;;;;;;3.03;2.40;;;25.20;80.00;;;;;;5072150;28;20036;-66
2022/09/12 12:32:59;;;;;;;;;;;25.20;79.10;;;;;;5072525;28;20035;-66
2022/09/12 12:36:00;;;;;;;2.40;2.20;;;25.00;79.70;;;;;;5072700;28;19923;-66
2022/09/12 12:38:27;;;;;;;2.55;2.10;;;25.20;79.90;;;;;;5072626;28;20540;-66
2022/09/12 12:40:53;;;;;;;3.10;2.08;;;25.30;79.20;;;;;;5071910;28;20426;-64
2022/09/12 12:43:30;;;;;;;;;;;25.40;78.40;;;;;;5072942;28;20070;-65
2022/09/12 12:46:03;;;;;;;3.30;2.05;;;25.50;77.70;;;;;;5072042;28;19904;-66
2022/09/12 12:48:32;;;;;;;7.55;2.20;;;25.40;76.60;;;;;;5072053;28;20119;-66
2022/09/12 12:51:16;;;;;;;2.40;1.92;;;25.40;76.80;;;;;;5072202;28;20499;-65
2022/09/12 12:53:42;;;;;;;3.67;3.17;;;25.40;78.30;;;;;;5072308;28;20028;-66
2022/09/12 12:56:24;;;;;;;;;;;25.50;79.50;;;;;;5072614;28;20028;-67
2022/09/12 12:58:58;;;;;;;3.45;1.92;;;25.60;79.40;;;;;;5054350;28;19904;-68
2022/09/12 13:01:24;;;;;;;3.22;2.08;;;25.70;77.10;;;;;;5074725;28;20024;-68
2022/09/12 13:04:00;;;;;;;;;;;25.70;76.90;;;;;;5076013;28;20407;-68
2022/09/12 13:06:35;;;;;;;4.38;2.20;;;25.70;77.30;;;;;;5076076;28;19980;-68
2022/09/12 13:09:06;;;;;;;6.55;2.80;;;25.70;78.40;;;;;;5076293;28;20436;-71
2022/09/12 13:11:37;;;;;;;7.55;2.33;;;25.90;79.40;;;;;;5057116;28;20036;-68
2022/09/12 13:14:08;;;;;;;2.72;1.58;;;25.90;80.10;;;;;;5075160;28;20036;-66
2022/09/12 13:16:38;;;;;;;2.42;2.10;;;25.70;76.70;;;;;;5057754;28;20029;-66